sensor_id;sensor_type;location;lat;lon;timestamp;P1;durP1;ratioP1;P2;durP2;ratioP2
75012;SDS011;63567;49.956;20.130;2022-10-04T00:01:41;18.80;;;8.15;;
75012;SDS011;63567;49.956;20.130;2022-10-04T00:04:10;19.85;;;9.50;;
75012;SDS011;63567;49.956;20.130;2022-10-04T00:06:43;19.60;;;8.77;;
75012;SDS011;63567;49.956;20.130;2022-10-04T00:09:19;17.67;;;8.18;;
75012;SDS011;63567;49.956;20.130;2022-10-04T00:11:47;16.08;;;7.72;;
75012;SDS011;63567;49.956;20.130;2022-10-04T00:14:21;17.98;;;8.75;;
75012;SDS011;63567;49.956;20.130;2022-10-04T00:16:49;18.83;;;8.93;;
75012;SDS011;63567;49.956;20.130;2022-10-04T00:24:22;17.77;;;7.65;;
75012;SDS011;63567;49.956;20.130;2022-10-04T00:29:31;15.13;;;7.73;;
75012;SDS011;63567;49.956;20.130;2022-10-04T00:34:46;18.40;;;7.57;;
75012;SDS011;63567;49.956;20.130;2022-10-04T00:37:13;15.82;;;8.10;;
75012;SDS011;63567;49.956;20.130;2022-10-04T00:39:40;23.33;;;9.68;;
75012;SDS011;63567;49.956;20.130;2022-10-04T00:45:28;21.10;;;8.45;;
75012;SDS011;63567;49.956;20.130;2022-10-04T00:50:37;23.15;;;9.90;;
75012;SDS011;63567;49.956;20.130;2022-10-04T00:53:20;22.67;;;9.93;;
75012;SDS011;63567;49.956;20.130;2022-10-04T00:55:55;25.33;;;11.15;;
75012;SDS011;63567;49.956;20.130;2022-10-04T00:58:27;23.35;;;11.10;;
75012;SDS011;63567;49.956;20.130;2022-10-04T01:00:57;23.35;;;10.55;;
75012;SDS011;63567;49.956;20.130;2022-10-04T01:03:26;19.55;;;8.85;;
75012;SDS011;63567;49.956;20.130;2022-10-04T01:05:57;19.08;;;8.70;;
75012;SDS011;63567;49.956;20.130;2022-10-04T01:08:30;20.50;;;8.88;;
75012;SDS011;63567;49.956;20.130;2022-10-04T01:11:00;19.80;;;9.55;;
75012;SDS011;63567;49.956;20.130;2022-10-04T01:13:35;17.23;;;8.77;;
75012;SDS011;63567;49.956;20.130;2022-10-04T01:16:08;16.92;;;7.72;;
75012;SDS011;63567;49.956;20.130;2022-10-04T01:18:35;19.77;;;8.95;;
75012;SDS011;63567;49.956;20.130;2022-10-04T01:26:00;16.85;;;7.88;;
75012;SDS011;63567;49.956;20.130;2022-10-04T01:28:27;19.98;;;8.63;;
75012;SDS011;63567;49.956;20.130;2022-10-04T01:30:53;11.75;;;5.53;;
75012;SDS011;63567;49.956;20.130;2022-10-04T01:33:18;15.07;;;7.28;;
75012;SDS011;63567;49.956;20.130;2022-10-04T01:35:44;14.40;;;7.45;;
75012;SDS011;63567;49.956;20.130;2022-10-04T01:38:10;17.02;;;8.32;;
75012;SDS011;63567;49.956;20.130;2022-10-04T01:40:38;15.57;;;7.60;;
75012;SDS011;63567;49.956;20.130;2022-10-04T01:43:08;19.20;;;8.93;;
75012;SDS011;63567;49.956;20.130;2022-10-04T01:45:39;19.67;;;8.88;;
75012;SDS011;63567;49.956;20.130;2022-10-04T01:48:13;15.63;;;8.00;;
75012;SDS011;63567;49.956;20.130;2022-10-04T01:55:45;19.40;;;8.48;;
75012;SDS011;63567;49.956;20.130;2022-10-04T01:58:21;22.17;;;9.15;;
75012;SDS011;63567;49.956;20.130;2022-10-04T02:00:55;16.33;;;7.93;;
75012;SDS011;63567;49.956;20.130;2022-10-04T02:03:29;19.20;;;8.68;;
75012;SDS011;63567;49.956;20.130;2022-10-04T02:05:59;21.95;;;9.02;;
75012;SDS011;63567;49.956;20.130;2022-10-04T02:08:28;19.08;;;8.07;;
75012;SDS011;63567;49.956;20.130;2022-10-04T02:10:58;18.08;;;8.85;;
75012;SDS011;63567;49.956;20.130;2022-10-04T02:13:26;14.65;;;8.15;;
75012;SDS011;63567;49.956;20.130;2022-10-04T02:15:57;21.35;;;10.00;;
75012;SDS011;63567;49.956;20.130;2022-10-04T02:18:23;19.77;;;9.15;;
75012;SDS011;63567;49.956;20.130;2022-10-04T02:20:50;19.85;;;10.15;;
75012;SDS011;63567;49.956;20.130;2022-10-04T02:23:18;23.30;;;11.20;;
75012;SDS011;63567;49.956;20.130;2022-10-04T02:25:46;26.55;;;11.60;;
75012;SDS011;63567;49.956;20.130;2022-10-04T02:28:12;20.42;;;8.95;;
75012;SDS011;63567;49.956;20.130;2022-10-04T02:30:46;21.85;;;9.73;;
75012;SDS011;63567;49.956;20.130;2022-10-04T02:33:37;22.48;;;9.07;;
75012;SDS011;63567;49.956;20.130;2022-10-04T02:36:04;27.77;;;9.80;;
75012;SDS011;63567;49.956;20.130;2022-10-04T02:38:32;19.63;;;9.52;;
75012;SDS011;63567;49.956;20.130;2022-10-04T02:43:57;17.35;;;7.55;;
75012;SDS011;63567;49.956;20.130;2022-10-04T02:46:28;19.52;;;8.65;;
75012;SDS011;63567;49.956;20.130;2022-10-04T02:49:05;15.52;;;7.05;;
75012;SDS011;63567;49.956;20.130;2022-10-04T02:51:51;14.68;;;7.65;;
75012;SDS011;63567;49.956;20.130;2022-10-04T02:54:29;14.00;;;6.55;;
75012;SDS011;63567;49.956;20.130;2022-10-04T02:57:01;14.50;;;6.57;;
75012;SDS011;63567;49.956;20.130;2022-10-04T02:59:27;15.45;;;7.03;;
75012;SDS011;63567;49.956;20.130;2022-10-04T03:01:58;16.13;;;6.93;;
75012;SDS011;63567;49.956;20.130;2022-10-04T03:04:37;12.57;;;5.60;;
75012;SDS011;63567;49.956;20.130;2022-10-04T03:07:04;14.90;;;6.53;;
75012;SDS011;63567;49.956;20.130;2022-10-04T03:09:32;13.13;;;6.57;;
75012;SDS011;63567;49.956;20.130;2022-10-04T03:12:00;12.80;;;5.60;;
75012;SDS011;63567;49.956;20.130;2022-10-04T03:14:28;12.07;;;6.05;;
75012;SDS011;63567;49.956;20.130;2022-10-04T03:16:57;14.57;;;6.00;;
75012;SDS011;63567;49.956;20.130;2022-10-04T03:19:25;14.15;;;6.72;;
75012;SDS011;63567;49.956;20.130;2022-10-04T03:21:54;15.73;;;7.15;;
75012;SDS011;63567;49.956;20.130;2022-10-04T03:24:24;17.92;;;7.25;;
75012;SDS011;63567;49.956;20.130;2022-10-04T03:26:55;16.23;;;7.13;;
75012;SDS011;63567;49.956;20.130;2022-10-04T03:29:23;18.33;;;7.60;;
75012;SDS011;63567;49.956;20.130;2022-10-04T03:31:51;17.80;;;7.63;;
75012;SDS011;63567;49.956;20.130;2022-10-04T03:37:11;15.80;;;7.30;;
75012;SDS011;63567;49.956;20.130;2022-10-04T03:39:41;17.42;;;7.70;;
75012;SDS011;63567;49.956;20.130;2022-10-04T03:42:19;19.55;;;8.07;;
75012;SDS011;63567;49.956;20.130;2022-10-04T03:44:45;19.08;;;8.05;;
75012;SDS011;63567;49.956;20.130;2022-10-04T03:47:46;20.35;;;7.82;;
75012;SDS011;63567;49.956;20.130;2022-10-04T03:50:12;19.30;;;8.90;;
75012;SDS011;63567;49.956;20.130;2022-10-04T03:52:38;19.63;;;7.78;;
75012;SDS011;63567;49.956;20.130;2022-10-04T03:55:11;16.27;;;7.05;;
75012;SDS011;63567;49.956;20.130;2022-10-04T03:57:39;17.90;;;8.20;;
75012;SDS011;63567;49.956;20.130;2022-10-04T04:00:05;22.50;;;8.65;;
75012;SDS011;63567;49.956;20.130;2022-10-04T04:02:32;20.45;;;8.50;;
75012;SDS011;63567;49.956;20.130;2022-10-04T04:07:48;19.92;;;9.02;;
75012;SDS011;63567;49.956;20.130;2022-10-04T04:10:32;18.73;;;7.43;;
75012;SDS011;63567;49.956;20.130;2022-10-04T04:13:02;13.27;;;6.50;;
75012;SDS011;63567;49.956;20.130;2022-10-04T04:15:39;18.52;;;7.65;;
75012;SDS011;63567;49.956;20.130;2022-10-04T04:18:10;14.93;;;6.32;;
75012;SDS011;63567;49.956;20.130;2022-10-04T04:20:40;12.23;;;6.38;;
75012;SDS011;63567;49.956;20.130;2022-10-04T04:25:39;13.35;;;5.80;;
75012;SDS011;63567;49.956;20.130;2022-10-04T04:28:11;18.77;;;6.70;;
75012;SDS011;63567;49.956;20.130;2022-10-04T04:30:49;12.82;;;5.60;;
75012;SDS011;63567;49.956;20.130;2022-10-04T04:33:21;15.75;;;6.35;;
75012;SDS011;63567;49.956;20.130;2022-10-04T04:35:57;11.63;;;5.53;;
75012;SDS011;63567;49.956;20.130;2022-10-04T04:38:28;14.73;;;5.80;;
75012;SDS011;63567;49.956;20.130;2022-10-04T04:40:53;15.27;;;5.80;;
75012;SDS011;63567;49.956;20.130;2022-10-04T04:43:19;14.57;;;5.75;;
75012;SDS011;63567;49.956;20.130;2022-10-04T04:45:48;14.18;;;5.38;;
75012;SDS011;63567;49.956;20.130;2022-10-04T04:48:15;11.23;;;5.22;;
75012;SDS011;63567;49.956;20.130;2022-10-04T04:51:04;11.38;;;4.50;;
75012;SDS011;63567;49.956;20.130;2022-10-04T04:53:29;13.02;;;5.15;;
75012;SDS011;63567;49.956;20.130;2022-10-04T04:56:01;9.40;;;4.78;;
75012;SDS011;63567;49.956;20.130;2022-10-04T04:58:32;10.68;;;4.80;;
75012;SDS011;63567;49.956;20.130;2022-10-04T05:06:37;14.10;;;5.50;;
75012;SDS011;63567;49.956;20.130;2022-10-04T05:09:04;11.23;;;4.85;;
75012;SDS011;63567;49.956;20.130;2022-10-04T05:11:32;12.80;;;5.45;;
75012;SDS011;63567;49.956;20.130;2022-10-04T05:16:26;14.13;;;6.23;;
75012;SDS011;63567;49.956;20.130;2022-10-04T05:19:02;12.43;;;6.97;;
75012;SDS011;63567;49.956;20.130;2022-10-04T05:21:32;15.13;;;7.45;;
75012;SDS011;63567;49.956;20.130;2022-10-04T05:24:10;12.88;;;6.47;;
75012;SDS011;63567;49.956;20.130;2022-10-04T05:26:39;16.88;;;6.68;;
75012;SDS011;63567;49.956;20.130;2022-10-04T05:29:10;17.23;;;7.88;;
75012;SDS011;63567;49.956;20.130;2022-10-04T05:34:24;16.48;;;6.82;;
75012;SDS011;63567;49.956;20.130;2022-10-04T05:40:02;16.00;;;7.05;;
75012;SDS011;63567;49.956;20.130;2022-10-04T05:42:44;15.55;;;6.70;;
75012;SDS011;63567;49.956;20.130;2022-10-04T05:45:20;14.05;;;6.43;;
75012;SDS011;63567;49.956;20.130;2022-10-04T05:47:48;11.68;;;5.63;;
75012;SDS011;63567;49.956;20.130;2022-10-04T05:50:19;10.52;;;5.15;;
75012;SDS011;63567;49.956;20.130;2022-10-04T05:52:52;12.82;;;5.82;;
75012;SDS011;63567;49.956;20.130;2022-10-04T05:55:46;14.73;;;6.03;;
75012;SDS011;63567;49.956;20.130;2022-10-04T05:58:30;13.57;;;5.68;;
75012;SDS011;63567;49.956;20.130;2022-10-04T06:07:03;13.93;;;6.18;;
75012;SDS011;63567;49.956;20.130;2022-10-04T06:09:55;12.48;;;5.38;;
75012;SDS011;63567;49.956;20.130;2022-10-04T06:12:30;13.25;;;5.38;;
75012;SDS011;63567;49.956;20.130;2022-10-04T06:15:20;11.65;;;5.60;;
75012;SDS011;63567;49.956;20.130;2022-10-04T06:18:15;10.35;;;5.30;;
75012;SDS011;63567;49.956;20.130;2022-10-04T06:23:17;11.47;;;5.33;;
75012;SDS011;63567;49.956;20.130;2022-10-04T06:25:46;14.02;;;5.13;;
75012;SDS011;63567;49.956;20.130;2022-10-04T06:28:30;11.05;;;5.50;;
75012;SDS011;63567;49.956;20.130;2022-10-04T06:39:09;12.30;;;5.38;;
75012;SDS011;63567;49.956;20.130;2022-10-04T06:41:50;10.75;;;5.18;;
75012;SDS011;63567;49.956;20.130;2022-10-04T06:44:42;10.20;;;5.18;;
75012;SDS011;63567;49.956;20.130;2022-10-04T06:52:57;9.70;;;4.82;;
75012;SDS011;63567;49.956;20.130;2022-10-04T06:55:41;12.45;;;5.25;;
75012;SDS011;63567;49.956;20.130;2022-10-04T07:01:31;9.00;;;4.40;;
75012;SDS011;63567;49.956;20.130;2022-10-04T07:04:09;9.43;;;4.30;;
75012;SDS011;63567;49.956;20.130;2022-10-04T07:07:15;9.55;;;4.60;;
75012;SDS011;63567;49.956;20.130;2022-10-04T07:13:03;10.45;;;4.47;;
75012;SDS011;63567;49.956;20.130;2022-10-04T07:15:46;8.60;;;4.38;;
75012;SDS011;63567;49.956;20.130;2022-10-04T07:18:19;8.70;;;3.70;;
75012;SDS011;63567;49.956;20.130;2022-10-04T07:20:49;8.43;;;3.72;;
75012;SDS011;63567;49.956;20.130;2022-10-04T07:23:25;9.23;;;4.22;;
75012;SDS011;63567;49.956;20.130;2022-10-04T07:25:56;10.32;;;4.50;;
75012;SDS011;63567;49.956;20.130;2022-10-04T07:28:27;9.43;;;3.95;;
75012;SDS011;63567;49.956;20.130;2022-10-04T07:31:28;6.65;;;3.67;;
75012;SDS011;63567;49.956;20.130;2022-10-04T07:33:57;8.15;;;4.38;;
75012;SDS011;63567;49.956;20.130;2022-10-04T07:36:30;8.10;;;4.57;;
75012;SDS011;63567;49.956;20.130;2022-10-04T07:39:08;7.07;;;3.90;;
75012;SDS011;63567;49.956;20.130;2022-10-04T07:41:45;9.93;;;4.28;;
75012;SDS011;63567;49.956;20.130;2022-10-04T07:49:44;9.32;;;4.25;;
75012;SDS011;63567;49.956;20.130;2022-10-04T08:00:30;8.07;;;4.00;;
75012;SDS011;63567;49.956;20.130;2022-10-04T08:03:20;10.25;;;4.60;;
75012;SDS011;63567;49.956;20.130;2022-10-04T08:09:18;8.45;;;3.92;;
75012;SDS011;63567;49.956;20.130;2022-10-04T08:18:03;8.80;;;4.88;;
75012;SDS011;63567;49.956;20.130;2022-10-04T08:23:05;10.73;;;4.82;;
75012;SDS011;63567;49.956;20.130;2022-10-04T08:25:43;6.00;;;3.90;;
75012;SDS011;63567;49.956;20.130;2022-10-04T08:28:34;10.45;;;4.68;;
75012;SDS011;63567;49.956;20.130;2022-10-04T08:34:22;7.55;;;4.13;;
75012;SDS011;63567;49.956;20.130;2022-10-04T08:43:02;5.70;;;3.75;;
75012;SDS011;63567;49.956;20.130;2022-10-04T08:51:45;9.45;;;4.13;;
75012;SDS011;63567;49.956;20.130;2022-10-04T08:54:22;7.28;;;3.58;;
75012;SDS011;63567;49.956;20.130;2022-10-04T08:57:13;7.88;;;3.75;;
75012;SDS011;63567;49.956;20.130;2022-10-04T09:02:46;5.35;;;3.45;;
75012;SDS011;63567;49.956;20.130;2022-10-04T09:16:27;6.23;;;3.43;;
75012;SDS011;63567;49.956;20.130;2022-10-04T09:19:18;7.05;;;3.42;;
75012;SDS011;63567;49.956;20.130;2022-10-04T09:22:00;8.98;;;3.72;;
75012;SDS011;63567;49.956;20.130;2022-10-04T09:24:47;7.47;;;3.22;;
75012;SDS011;63567;49.956;20.130;2022-10-04T09:27:45;7.90;;;3.28;;
75012;SDS011;63567;49.956;20.130;2022-10-04T09:43:48;7.57;;;3.05;;
75012;SDS011;63567;49.956;20.130;2022-10-04T09:49:32;8.07;;;3.40;;
75012;SDS011;63567;49.956;20.130;2022-10-04T09:52:33;7.22;;;3.20;;
75012;SDS011;63567;49.956;20.130;2022-10-04T09:55:27;8.18;;;3.45;;
75012;SDS011;63567;49.956;20.130;2022-10-04T09:58:11;6.20;;;3.17;;
75012;SDS011;63567;49.956;20.130;2022-10-04T10:15:39;8.32;;;3.45;;
75012;SDS011;63567;49.956;20.130;2022-10-04T10:18:24;5.75;;;3.25;;
75012;SDS011;63567;49.956;20.130;2022-10-04T10:27:18;6.63;;;3.20;;
75012;SDS011;63567;49.956;20.130;2022-10-04T10:30:14;5.30;;;3.13;;
75012;SDS011;63567;49.956;20.130;2022-10-04T10:50:05;5.40;;;2.90;;
75012;SDS011;63567;49.956;20.130;2022-10-04T10:52:54;5.85;;;2.72;;
75012;SDS011;63567;49.956;20.130;2022-10-04T11:21:01;6.13;;;2.28;;
75012;SDS011;63567;49.956;20.130;2022-10-04T11:46:12;4.30;;;2.38;;
75012;SDS011;63567;49.956;20.130;2022-10-04T12:00:17;3.38;;;1.90;;
75012;SDS011;63567;49.956;20.130;2022-10-04T12:03:04;3.15;;;1.80;;
75012;SDS011;63567;49.956;20.130;2022-10-04T12:05:57;2.65;;;1.50;;
75012;SDS011;63567;49.956;20.130;2022-10-04T12:19:50;6.00;;;1.70;;
75012;SDS011;63567;49.956;20.130;2022-10-04T12:22:43;4.38;;;2.22;;
75012;SDS011;63567;49.956;20.130;2022-10-04T12:31:16;4.60;;;2.50;;
75012;SDS011;63567;49.956;20.130;2022-10-04T12:36:38;4.80;;;2.38;;
75012;SDS011;63567;49.956;20.130;2022-10-04T12:39:16;4.95;;;2.38;;
75012;SDS011;63567;49.956;20.130;2022-10-04T12:42:16;4.22;;;2.33;;
75012;SDS011;63567;49.956;20.130;2022-10-04T12:50:33;3.60;;;2.33;;
75012;SDS011;63567;49.956;20.130;2022-10-04T12:58:49;5.80;;;2.42;;
75012;SDS011;63567;49.956;20.130;2022-10-04T13:04:04;4.50;;;2.30;;
75012;SDS011;63567;49.956;20.130;2022-10-04T13:22:52;5.25;;;2.45;;
75012;SDS011;63567;49.956;20.130;2022-10-04T13:31:02;3.25;;;2.30;;
75012;SDS011;63567;49.956;20.130;2022-10-04T13:33:42;4.05;;;2.05;;
75012;SDS011;63567;49.956;20.130;2022-10-04T13:36:17;3.65;;;1.95;;
75012;SDS011;63567;49.956;20.130;2022-10-04T13:55:37;3.50;;;1.58;;
75012;SDS011;63567;49.956;20.130;2022-10-04T14:31:01;3.75;;;1.65;;
75012;SDS011;63567;49.956;20.130;2022-10-04T14:36:49;3.72;;;1.60;;
75012;SDS011;63567;49.956;20.130;2022-10-04T14:44:30;3.28;;;2.13;;
75012;SDS011;63567;49.956;20.130;2022-10-04T14:47:09;2.38;;;1.55;;
75012;SDS011;63567;49.956;20.130;2022-10-04T14:52:46;3.38;;;1.88;;
75012;SDS011;63567;49.956;20.130;2022-10-04T14:55:43;2.80;;;1.98;;
75012;SDS011;63567;49.956;20.130;2022-10-04T15:06:53;4.38;;;2.40;;
75012;SDS011;63567;49.956;20.130;2022-10-04T15:17:00;3.60;;;1.70;;
75012;SDS011;63567;49.956;20.130;2022-10-04T15:19:54;3.80;;;1.70;;
75012;SDS011;63567;49.956;20.130;2022-10-04T15:22:43;3.45;;;1.80;;
75012;SDS011;63567;49.956;20.130;2022-10-04T15:28:03;3.65;;;1.70;;
75012;SDS011;63567;49.956;20.130;2022-10-04T15:31:00;3.72;;;1.80;;
75012;SDS011;63567;49.956;20.130;2022-10-04T15:37:10;2.88;;;1.20;;
75012;SDS011;63567;49.956;20.130;2022-10-04T15:42:53;3.63;;;1.80;;
75012;SDS011;63567;49.956;20.130;2022-10-04T15:45:27;3.58;;;2.08;;
75012;SDS011;63567;49.956;20.130;2022-10-04T15:50:58;6.47;;;2.20;;
75012;SDS011;63567;49.956;20.130;2022-10-04T15:53:41;3.63;;;1.92;;
75012;SDS011;63567;49.956;20.130;2022-10-04T15:59:47;4.75;;;2.20;;
75012;SDS011;63567;49.956;20.130;2022-10-04T16:05:04;3.65;;;1.70;;
75012;SDS011;63567;49.956;20.130;2022-10-04T16:15:44;4.88;;;2.00;;
75012;SDS011;63567;49.956;20.130;2022-10-04T16:20:55;3.70;;;1.95;;
75012;SDS011;63567;49.956;20.130;2022-10-04T16:25:56;4.65;;;1.95;;
75012;SDS011;63567;49.956;20.130;2022-10-04T16:28:37;4.15;;;2.13;;
75012;SDS011;63567;49.956;20.130;2022-10-04T16:34:16;3.92;;;1.80;;
75012;SDS011;63567;49.956;20.130;2022-10-04T16:39:48;5.20;;;2.00;;
75012;SDS011;63567;49.956;20.130;2022-10-04T16:42:30;4.90;;;2.40;;
75012;SDS011;63567;49.956;20.130;2022-10-04T16:47:31;7.60;;;4.20;;
75012;SDS011;63567;49.956;20.130;2022-10-04T16:50:02;5.85;;;2.90;;
75012;SDS011;63567;49.956;20.130;2022-10-04T16:55:08;7.40;;;3.35;;
75012;SDS011;63567;49.956;20.130;2022-10-04T16:57:43;7.28;;;3.30;;
75012;SDS011;63567;49.956;20.130;2022-10-04T17:20:58;28.70;;;12.55;;
75012;SDS011;63567;49.956;20.130;2022-10-04T17:31:47;11.00;;;7.20;;
75012;SDS011;63567;49.956;20.130;2022-10-04T17:34:35;13.70;;;7.75;;
75012;SDS011;63567;49.956;20.130;2022-10-04T17:39:58;21.48;;;12.85;;
75012;SDS011;63567;49.956;20.130;2022-10-04T17:48:48;18.25;;;11.35;;
75012;SDS011;63567;49.956;20.130;2022-10-04T17:51:38;15.65;;;8.90;;
75012;SDS011;63567;49.956;20.130;2022-10-04T17:54:27;10.63;;;5.90;;
75012;SDS011;63567;49.956;20.130;2022-10-04T17:57:23;13.52;;;7.25;;
75012;SDS011;63567;49.956;20.130;2022-10-04T17:59:57;14.90;;;7.10;;
75012;SDS011;63567;49.956;20.130;2022-10-04T18:05:03;11.90;;;6.90;;
75012;SDS011;63567;49.956;20.130;2022-10-04T18:07:43;14.23;;;6.40;;
75012;SDS011;63567;49.956;20.130;2022-10-04T18:10:18;11.43;;;6.60;;
75012;SDS011;63567;49.956;20.130;2022-10-04T18:12:50;10.13;;;5.28;;
75012;SDS011;63567;49.956;20.130;2022-10-04T18:15:35;10.77;;;5.03;;
75012;SDS011;63567;49.956;20.130;2022-10-04T18:18:12;9.27;;;5.25;;
75012;SDS011;63567;49.956;20.130;2022-10-04T18:21:23;10.88;;;5.40;;
75012;SDS011;63567;49.956;20.130;2022-10-04T18:23:29;10.85;;;5.53;;
75012;SDS011;63567;49.956;20.130;2022-10-04T18:26:10;9.90;;;5.70;;
75012;SDS011;63567;49.956;20.130;2022-10-04T18:28:43;11.88;;;5.38;;
75012;SDS011;63567;49.956;20.130;2022-10-04T18:33:54;11.57;;;5.22;;
75012;SDS011;63567;49.956;20.130;2022-10-04T18:36:23;9.80;;;5.35;;
75012;SDS011;63567;49.956;20.130;2022-10-04T18:38:59;11.13;;;4.95;;
75012;SDS011;63567;49.956;20.130;2022-10-04T18:41:27;9.85;;;5.32;;
75012;SDS011;63567;49.956;20.130;2022-10-04T18:44:13;10.20;;;4.82;;
75012;SDS011;63567;49.956;20.130;2022-10-04T18:46:41;11.60;;;5.13;;
75012;SDS011;63567;49.956;20.130;2022-10-04T18:49:13;12.20;;;5.32;;
75012;SDS011;63567;49.956;20.130;2022-10-04T19:00:22;8.27;;;4.55;;
75012;SDS011;63567;49.956;20.130;2022-10-04T19:03:26;10.65;;;5.38;;
75012;SDS011;63567;49.956;20.130;2022-10-04T19:11:44;8.30;;;5.38;;
75012;SDS011;63567;49.956;20.130;2022-10-04T19:19:54;10.75;;;5.22;;
75012;SDS011;63567;49.956;20.130;2022-10-04T19:39:23;10.63;;;5.07;;
75012;SDS011;63567;49.956;20.130;2022-10-04T19:42:14;11.20;;;5.88;;
75012;SDS011;63567;49.956;20.130;2022-10-04T19:44:47;18.02;;;8.18;;
75012;SDS011;63567;49.956;20.130;2022-10-04T19:47:40;22.00;;;9.95;;
75012;SDS011;63567;49.956;20.130;2022-10-04T19:50:23;19.77;;;9.25;;
75012;SDS011;63567;49.956;20.130;2022-10-04T19:55:47;16.83;;;7.15;;
75012;SDS011;63567;49.956;20.130;2022-10-04T19:58:23;14.93;;;7.93;;
75012;SDS011;63567;49.956;20.130;2022-10-04T20:00:50;13.05;;;7.03;;
75012;SDS011;63567;49.956;20.130;2022-10-04T20:03:16;24.58;;;12.10;;
75012;SDS011;63567;49.956;20.130;2022-10-04T20:05:42;31.42;;;15.20;;
75012;SDS011;63567;49.956;20.130;2022-10-04T20:08:09;24.63;;;12.15;;
75012;SDS011;63567;49.956;20.130;2022-10-04T20:10:36;22.48;;;11.20;;
75012;SDS011;63567;49.956;20.130;2022-10-04T20:13:04;17.08;;;9.52;;
75012;SDS011;63567;49.956;20.130;2022-10-04T20:15:51;15.02;;;8.02;;
75012;SDS011;63567;49.956;20.130;2022-10-04T20:26:07;17.23;;;7.85;;
75012;SDS011;63567;49.956;20.130;2022-10-04T20:31:02;13.52;;;7.00;;
75012;SDS011;63567;49.956;20.130;2022-10-04T20:36:01;16.08;;;7.35;;
75012;SDS011;63567;49.956;20.130;2022-10-04T20:38:41;16.85;;;7.78;;
75012;SDS011;63567;49.956;20.130;2022-10-04T20:43:52;14.85;;;7.90;;
75012;SDS011;63567;49.956;20.130;2022-10-04T20:46:21;12.18;;;6.80;;
75012;SDS011;63567;49.956;20.130;2022-10-04T20:48:49;9.57;;;5.60;;
75012;SDS011;63567;49.956;20.130;2022-10-04T20:51:16;10.60;;;6.25;;
75012;SDS011;63567;49.956;20.130;2022-10-04T20:53:42;12.88;;;6.60;;
75012;SDS011;63567;49.956;20.130;2022-10-04T20:58:48;17.95;;;7.05;;
75012;SDS011;63567;49.956;20.130;2022-10-04T21:01:22;11.50;;;6.10;;
75012;SDS011;63567;49.956;20.130;2022-10-04T21:06:50;12.05;;;6.78;;
75012;SDS011;63567;49.956;20.130;2022-10-04T21:09:20;14.75;;;6.57;;
75012;SDS011;63567;49.956;20.130;2022-10-04T21:11:46;14.07;;;6.35;;
75012;SDS011;63567;49.956;20.130;2022-10-04T21:14:24;11.98;;;6.70;;
75012;SDS011;63567;49.956;20.130;2022-10-04T21:16:59;17.33;;;7.82;;
75012;SDS011;63567;49.956;20.130;2022-10-04T21:21:57;14.65;;;7.65;;
75012;SDS011;63567;49.956;20.130;2022-10-04T21:27:02;11.98;;;6.32;;
75012;SDS011;63567;49.956;20.130;2022-10-04T21:29:29;12.73;;;6.53;;
75012;SDS011;63567;49.956;20.130;2022-10-04T21:31:55;12.27;;;6.95;;
75012;SDS011;63567;49.956;20.130;2022-10-04T21:34:21;12.82;;;6.68;;
75012;SDS011;63567;49.956;20.130;2022-10-04T21:36:47;10.70;;;6.50;;
75012;SDS011;63567;49.956;20.130;2022-10-04T21:39:12;13.27;;;6.23;;
75012;SDS011;63567;49.956;20.130;2022-10-04T21:41:37;9.67;;;6.27;;
75012;SDS011;63567;49.956;20.130;2022-10-04T21:44:02;12.00;;;6.37;;
75012;SDS011;63567;49.956;20.130;2022-10-04T21:46:28;11.00;;;6.37;;
75012;SDS011;63567;49.956;20.130;2022-10-04T21:48:53;12.63;;;6.63;;
75012;SDS011;63567;49.956;20.130;2022-10-04T21:51:18;9.93;;;6.27;;
75012;SDS011;63567;49.956;20.130;2022-10-04T21:53:43;11.00;;;5.83;;
75012;SDS011;63567;49.956;20.130;2022-10-04T21:56:09;10.93;;;5.47;;
75012;SDS011;63567;49.956;20.130;2022-10-04T21:58:35;8.52;;;5.60;;
75012;SDS011;63567;49.956;20.130;2022-10-04T22:01:00;12.10;;;6.23;;
75012;SDS011;63567;49.956;20.130;2022-10-04T22:03:26;12.67;;;6.27;;
75012;SDS011;63567;49.956;20.130;2022-10-04T22:05:51;12.57;;;6.00;;
75012;SDS011;63567;49.956;20.130;2022-10-04T22:08:16;11.80;;;5.97;;
75012;SDS011;63567;49.956;20.130;2022-10-04T22:10:41;14.93;;;5.70;;
75012;SDS011;63567;49.956;20.130;2022-10-04T22:13:07;10.98;;;5.53;;
75012;SDS011;63567;49.956;20.130;2022-10-04T22:15:33;11.07;;;5.82;;
75012;SDS011;63567;49.956;20.130;2022-10-04T22:17:58;10.00;;;5.67;;
75012;SDS011;63567;49.956;20.130;2022-10-04T22:20:23;14.13;;;5.57;;
75012;SDS011;63567;49.956;20.130;2022-10-04T22:22:51;10.93;;;5.55;;
75012;SDS011;63567;49.956;20.130;2022-10-04T22:25:19;12.77;;;5.57;;
75012;SDS011;63567;49.956;20.130;2022-10-04T22:27:46;10.85;;;5.55;;
75012;SDS011;63567;49.956;20.130;2022-10-04T22:30:23;9.10;;;5.53;;
75012;SDS011;63567;49.956;20.130;2022-10-04T22:32:49;11.32;;;6.15;;
75012;SDS011;63567;49.956;20.130;2022-10-04T22:35:16;10.40;;;5.38;;
75012;SDS011;63567;49.956;20.130;2022-10-04T22:37:44;10.43;;;5.70;;
75012;SDS011;63567;49.956;20.130;2022-10-04T22:40:14;8.35;;;5.28;;
75012;SDS011;63567;49.956;20.130;2022-10-04T22:42:45;10.70;;;5.53;;
75012;SDS011;63567;49.956;20.130;2022-10-04T22:45:16;9.85;;;5.43;;
75012;SDS011;63567;49.956;20.130;2022-10-04T22:47:47;13.48;;;5.93;;
75012;SDS011;63567;49.956;20.130;2022-10-04T22:53:00;11.73;;;6.20;;
75012;SDS011;63567;49.956;20.130;2022-10-04T22:55:29;10.30;;;5.53;;
75012;SDS011;63567;49.956;20.130;2022-10-04T22:57:54;10.90;;;5.53;;
75012;SDS011;63567;49.956;20.130;2022-10-04T23:00:19;12.33;;;5.90;;
75012;SDS011;63567;49.956;20.130;2022-10-04T23:02:45;13.90;;;5.43;;
75012;SDS011;63567;49.956;20.130;2022-10-04T23:05:14;10.43;;;5.40;;
75012;SDS011;63567;49.956;20.130;2022-10-04T23:07:42;8.60;;;5.28;;
75012;SDS011;63567;49.956;20.130;2022-10-04T23:10:08;11.85;;;5.65;;
75012;SDS011;63567;49.956;20.130;2022-10-04T23:12:34;9.73;;;4.88;;
75012;SDS011;63567;49.956;20.130;2022-10-04T23:15:00;10.82;;;5.35;;
75012;SDS011;63567;49.956;20.130;2022-10-04T23:17:33;12.10;;;6.15;;
75012;SDS011;63567;49.956;20.130;2022-10-04T23:20:05;11.18;;;5.65;;
75012;SDS011;63567;49.956;20.130;2022-10-04T23:22:36;12.13;;;6.90;;
75012;SDS011;63567;49.956;20.130;2022-10-04T23:25:04;11.48;;;5.65;;
75012;SDS011;63567;49.956;20.130;2022-10-04T23:27:46;11.30;;;5.63;;
75012;SDS011;63567;49.956;20.130;2022-10-04T23:30:16;10.20;;;5.28;;
75012;SDS011;63567;49.956;20.130;2022-10-04T23:32:45;10.95;;;6.28;;
75012;SDS011;63567;49.956;20.130;2022-10-04T23:35:17;12.43;;;5.32;;
75012;SDS011;63567;49.956;20.130;2022-10-04T23:37:49;12.60;;;5.30;;
75012;SDS011;63567;49.956;20.130;2022-10-04T23:40:19;9.73;;;4.78;;
75012;SDS011;63567;49.956;20.130;2022-10-04T23:42:47;11.55;;;5.10;;
75012;SDS011;63567;49.956;20.130;2022-10-04T23:45:15;10.65;;;4.60;;
75012;SDS011;63567;49.956;20.130;2022-10-04T23:47:43;11.23;;;5.03;;
75012;SDS011;63567;49.956;20.130;2022-10-04T23:50:17;9.20;;;5.10;;
75012;SDS011;63567;49.956;20.130;2022-10-04T23:52:46;8.95;;;5.13;;
75012;SDS011;63567;49.956;20.130;2022-10-04T23:55:16;9.05;;;4.47;;
75012;SDS011;63567;49.956;20.130;2022-10-04T23:57:44;9.07;;;4.47;;
